Latest Coastal Weather Observations for Hindmarsh Island

IDS60701

Issued at 11:41 pm CST Saturday 25 June 2022 (issued every 10 minutes, with the page automatically refreshed every 10 minutes)

About coastal observations | Map of coastal stations | Coastal observations for SA | Marine services | Other Formats
Station Details ID: 023894 Name: HINDMARSH ISLAND AWS Lat: -35.52 Lon: 138.82 Height: 11.0 m
Data from the previous 72 hours. | See also: Recent months at Hindmarsh Island
Date/Time
CST
Wind Sea
Height
m
Swell Vis
km
Cloud Weather Temp
°C
Press
MSL
hPa
Rain since
9am
mm
Dir  Spd
kts
Gust
kts
Height
m
Period
s
Dir
25/11:30pm NW 6 8 - - - - - - - 11.9 1023.5 0.0
25/11:00pm NW 7 10 - - - - - - - 12.3 1023.5 0.0
25/10:30pm WNW 9 11 - - - - - - - 12.5 1023.3 0.0
25/10:00pm NNW 5 6 - - - - - - - 11.3 1023.4 0.0
25/09:30pm NW 7 8 - - - - - - - 11.8 1023.2 0.0
25/09:00pm N 5 7 - - - - - - - 11.6 1023.0 0.0
25/08:30pm NNW 6 7 - - - - - - - 11.7 1022.8 0.0
25/08:00pm NNW 7 9 - - - - - - - 12.1 1022.7 0.0
25/07:30pm NNW 9 11 - - - - - - - 12.4 1022.5 0.0
25/07:00pm NNW 9 11 - - - - - - - 11.9 1022.2 0.0
25/06:30pm NNW 8 10 - - - - - - - 11.7 1021.8 0.0
25/06:00pm NNW 9 12 - - - - - - - 12.4 1021.4 0.0
25/05:30pm NNW 9 12 - - - - - - - 12.9 1021.2 0.0
25/05:00pm NW 11 18 - - - - - - - 13.5 1021.1 0.0
25/04:30pm NW 9 12 - - - - - - - 14.0 1021.2 0.0
25/04:00pm NW 10 14 - - - - - - - 14.1 1021.1 0.0
25/03:30pm W 14 18 - - - - - - - 13.9 1021.1 0.0
25/03:00pm NW 15 21 - - - - - - - 15.3 1020.8 0.0
25/02:30pm WNW 11 16 - - - - - - - 16.0 1020.9 0.0
25/02:00pm WNW 13 22 - - - - - - - 16.5 1020.8 0.0
25/01:30pm NW 16 22 - - - - - - - 16.5 1021.0 0.0
25/01:00pm NW 13 18 - - - - - - - 16.5 1021.2 0.0
25/12:30pm NW 13 17 - - - - - - - 16.2 1021.4 0.0
25/12:00pm WNW 15 20 - - - - - - - 16.0 1021.6 0.0
25/11:30am WNW 13 18 - - - - - - - 15.8 1021.7 0.0
25/11:00am WNW 14 19 - - - - - - - 15.2 1021.8 0.0
25/10:30am WNW 13 19 - - - - - - - 15.0 1021.9 0.0
25/10:00am NW 11 16 - - - - - - - 14.5 1021.8 0.0
25/09:30am NW 11 14 - - - - - - - 13.2 1021.7 0.0
25/09:00am NW 9 13 - - - - - - - 12.5 1021.5 0.0
25/08:30am NNW 9 12 - - - - - - - 12.0 1021.1 0.0
25/08:00am NNW 6 9 - - - - - - - 11.0 1021.0 0.0
25/07:30am NNW 7 9 - - - - - - - 10.9 1020.8 0.0
25/07:00am NNW 7 8 - - - - - - - 10.8 1020.6 0.0
25/06:30am NNW 5 7 - - - - - - - 11.5 1020.3 0.0
25/06:00am WNW 6 8 - - - - - - - 11.7 1020.1 0.0
25/05:30am WNW 8 11 - - - - - - - 11.7 1020.1 0.0
25/05:00am NW 5 6 - - - - - - - 10.8 1019.9 0.0
25/04:30am NNW 7 9 - - - - - - - 11.4 1019.5 0.0
25/04:00am NW 8 11 - - - - - - - 11.6 1019.4 0.0
25/03:30am NW 9 11 - - - - - - - 11.3 1019.3 0.0
25/03:00am NW 9 11 - - - - - - - 11.2 1019.3 0.0
25/02:30am NW 9 12 - - - - - - - 11.4 1019.3 0.0
25/02:00am NW 9 13 - - - - - - - 11.5 1019.3 0.0
25/01:30am NW 9 11 - - - - - - - 11.1 1019.5 0.0
25/01:00am NW 9 11 - - - - - - - 10.8 1019.5 0.0
25/12:30am WNW 9 11 - - - - - - - 10.9 1019.6 0.0
25/12:00am WNW 9 11 - - - - - - - 11.3 1019.6 0.0
 
Date/Time
CST
Wind Sea
Height
m
Swell Vis
km
Cloud Weather Temp
°C
Press
MSL
hPa
Rain since
9am
mm
Dir  Spd
kts
Gust
kts
Height
m
Period
s
Dir
24/11:30pm WNW 8 10 - - - - - - - 11.2 1019.7 0.0
24/11:00pm WNW 8 9 - - - - - - - 11.2 1019.9 0.0
24/10:30pm WNW 8 11 - - - - - - - 11.1 1019.8 0.0
24/10:00pm WNW 6 7 - - - - - - - 11.1 1019.7 0.0
24/09:30pm WNW 6 7 - - - - - - - 11.4 1019.7 0.0
24/09:00pm WNW 7 9 - - - - - - - 11.2 1019.6 0.0
24/08:30pm NW 7 8 - - - - - - - 11.0 1019.4 0.0
24/08:00pm NW 8 9 - - - - - - - 11.3 1019.4 0.0
24/07:30pm NNW 7 9 - - - - - - - 11.5 1019.3 0.0
24/07:00pm NW 7 9 - - - - - - - 12.1 1019.1 0.0
24/06:30pm NW 6 9 - - - - - - - 12.1 1018.9 0.0
24/06:00pm WNW 7 10 - - - - - - - 12.8 1018.7 0.0
24/05:30pm WNW 7 11 - - - - - - - 13.3 1018.4 0.0
24/05:00pm WNW 7 9 - - - - - - - 14.2 1018.0 0.0
24/04:30pm WNW 9 13 - - - - - - - 15.2 1017.8 0.0
24/04:00pm W 8 12 - - - - - - - 16.3 1017.8 0.0
24/03:30pm SW 8 10 - - - - - - - 15.3 1017.8 0.0
24/03:00pm SW 8 10 - - - - - - - 15.4 1017.8 0.0
24/02:30pm SW 6 8 - - - - - - - 15.3 1017.7 0.0
24/02:00pm SW 9 10 - - - - - - - 15.2 1017.7 0.0
24/01:30pm SW 8 10 - - - - - - - 15.4 1017.8 0.0
24/01:00pm SW 9 11 - - - - - - - 14.7 1018.1 0.0
24/12:30pm SW 10 12 - - - - - - - 15.7 1018.3 0.0
24/12:00pm SW 11 14 - - - - - - - 15.3 1018.7 0.0
24/11:30am WSW 10 14 - - - - - - - 16.1 1018.9 0.0
24/11:00am WSW 10 13 - - - - - - - 15.8 1019.0 0.0
24/10:30am WSW 9 14 - - - - - - - 15.9 1019.0 0.0
24/10:00am WSW 10 13 - - - - - - - 14.5 1019.0 0.0
24/09:30am W 8 10 - - - - - - - 14.3 1018.8 0.0
24/09:00am W 8 11 - - - - - - - 13.6 1018.6 0.0
24/08:30am W 7 10 - - - - - - - 13.4 1018.2 0.0
24/08:00am W 8 11 - - - - - - - 13.3 1018.0 0.0
24/07:30am W 9 12 - - - - - - - 13.2 1017.8 0.0
24/07:00am WSW 8 12 - - - - - - - 12.9 1017.7 0.0
24/06:30am WSW 8 10 - - - - - - - 12.5 1017.2 0.0
24/06:00am W 9 11 - - - - - - - 13.0 1016.8 0.0
24/05:30am W 7 11 - - - - - - - 13.0 1016.6 0.0
24/05:00am WNW 4 6 - - - - - - - 13.2 1016.2 0.0
24/04:30am W 6 8 - - - - - - - 13.9 1016.0 0.0
24/04:00am WSW 9 14 - - - - - - - 14.1 1015.9 0.0
24/03:30am SW 10 14 - - - - - - - 14.1 1015.7 0.0
24/03:00am SW 12 16 - - - - - - - 14.3 1015.6 0.0
24/02:30am W 7 11 - - - - - - - 15.6 1015.6 0.0
24/02:00am NW 11 17 - - - - - - - 15.5 1015.4 0.0
24/01:30am WNW 12 17 - - - - - - - 15.4 1015.3 0.0
24/01:00am WNW 12 19 - - - - - - - 15.9 1015.5 0.0
24/12:30am WNW 14 22 - - - - - - - 15.9 1015.4 0.0
24/12:00am WNW 14 20 - - - - - - - 15.6 1015.3 0.0
 
Date/Time
CST
Wind Sea
Height
m
Swell Vis
km
Cloud Weather Temp
°C
Press
MSL
hPa
Rain since
9am
mm
Dir  Spd
kts
Gust
kts
Height
m
Period
s
Dir
23/11:30pm WNW 12 19 - - - - - - - 15.6 1015.4 0.0
23/11:00pm NW 14 18 - - - - - - - 15.7 1015.3 0.0
23/10:30pm NW 16 21 - - - - - - - 15.9 1015.5 0.0
23/10:12pm WNW 14 21 - - - - - - - 16.4 1015.9 0.0
23/10:00pm WNW 8 12 - - - - - - - 15.9 1016.1 0.0
23/09:30pm NW 12 17 - - - - - - - 17.1 1015.9 0.0
23/09:00pm NW 14 20 - - - - - - - 17.1 1015.7 0.0
23/08:30pm NNW 10 14 - - - - - - - 16.9 1015.8 0.0
23/08:00pm NNW 13 18 - - - - - - - 17.3 1015.8 0.0
23/07:30pm NNW 10 15 - - - - - - - 17.1 1016.0 0.0
23/07:00pm NNW 9 15 - - - - - - - 16.8 1016.1 0.0
23/06:30pm NNW 11 17 - - - - - - - 16.8 1015.9 0.0
23/06:00pm NW 10 15 - - - - - - - 16.7 1016.2 0.0
23/05:30pm NNW 14 21 - - - - - - - 17.0 1015.8 0.0
23/05:00pm NNW 14 20 - - - - - - - 17.1 1016.1 0.0
23/04:30pm NNW 17 25 - - - - - - - 17.3 1016.1 0.0
23/04:00pm NNW 14 20 - - - - - - - 17.6 1016.3 0.0
23/03:30pm NNW 18 25 - - - - - - - 18.1 1016.4 0.0
23/03:12pm NNW 17 27 - - - - - - - 18.2 1016.7 0.0
23/03:00pm NNW 18 24 - - - - - - - 18.4 1016.6 0.0
23/02:41pm NNW 17 27 - - - - - - - 18.3 1016.9 0.0
23/02:30pm NNW 18 25 - - - - - - - 18.5 1017.0 0.0
23/02:17pm NNW 18 29 - - - - - - - 18.3 1017.0 0.0
23/02:00pm NNW 17 25 - - - - - - - 18.5 1017.5 0.0
23/01:43pm NNW 19 29 - - - - - - - 18.4 1017.6 0.0
23/01:30pm NNW 16 24 - - - - - - - 18.4 1018.0 0.0
23/01:00pm NNW 17 25 - - - - - - - 18.1 1018.7 0.0
23/12:30pm NW 16 25 - - - - - - - 18.2 1019.6 0.0
23/12:25pm NW 15 25 - - - - - - - 18.2 1019.7 0.0
23/12:00pm NW 14 21 - - - - - - - 18.0 1020.5 0.0
23/11:30am NW 20 28 - - - - - - - 17.5 1020.8 0.0
23/11:14am NW 17 28 - - - - - - - 17.2 1021.0 0.0
23/11:00am NW 19 27 - - - - - - - 16.8 1021.3 0.0
23/10:32am NW 18 28 - - - - - - - 16.5 1021.5 0.0
23/10:30am NW 17 25 - - - - - - - 16.6 1021.5 0.0
23/10:00am NW 20 26 - - - - - - - 16.1 1021.5 0.0
23/09:30am NW 17 26 - - - - - - - 15.7 1021.4 0.0
23/09:00am NW 12 17 - - - - - - - 15.3 1021.7 0.2
23/08:30am NW 12 17 - - - - - - - 14.7 1021.7 0.2
23/08:00am NW 10 14 - - - - - - - 14.3 1021.6 0.2
23/07:30am NW 16 23 - - - - - - - 14.6 1021.4 0.2
23/07:00am NW 14 22 - - - - - - - 14.6 1021.4 0.2
23/06:30am NW 16 20 - - - - - - - 13.9 1021.3 0.2
23/06:00am NNW 15 20 - - - - - - - 14.0 1020.9 0.2
23/05:30am NNW 14 20 - - - - - - - 13.8 1021.1 0.2
23/05:00am NNW 12 16 - - - - - - - 13.8 1021.2 0.2
23/04:30am NNW 12 17 - - - - - - - 13.6 1021.3 0.2
23/04:00am NNW 7 12 - - - - - - - 13.5 1021.7 0.2
23/03:30am NNW 6 9 - - - - - - - 12.7 1022.1 0.2
23/03:00am N 3 5 - - - - - - - 12.1 1022.4 0.2
23/02:30am NNW 7 9 - - - - - - - 12.7 1022.7 0.2
23/02:00am N 7 9 - - - - - - - 11.8 1022.8 0.2
23/01:30am N 8 9 - - - - - - - 12.1 1023.3 0.2
23/01:00am NNW 11 15 - - - - - - - 13.0 1023.6 0.2
23/12:30am NNW 8 10 - - - - - - - 12.8 1023.9 0.2
23/12:00am NNW 9 15 - - - - - - - 13.0 1024.2 0.2

Other formats

Comma delimited format used in spreadsheet applications
http://www.bom.gov.au/fwo/IDS60701/IDS60701.94677.axf

JavaScript Object Notation format (JSON) in row-major order
http://www.bom.gov.au/fwo/IDS60701/IDS60701.94677.json

Data quality

Most of these data are generated automatically and are frequently updated. Quality checks on data are not normally performed. It is possible for incorrect values to appear. Refer to information at About Latest Weather Observations and please check the disclaimer before using these data.